• Join FlightAware (Why Join?)
  • Login
  • US Flag 
03:40PM EDT


 

Airport Tracker/Info


-or-


 

Live Flight TrackerFlight Track Log ✈ AMF229 ✈ 08-Nov-2013 ✈ KHWD - KBUR

Flight Track Log - Related Links

Times and Time Zones

All times are in EST time to prevent confusion due to time zone crossing. See the AMF229 flight status page for this flight to view local times or setup timezone preferences in your user account.

Time Position Orientation Groundspeed Altitude Reporting Facility
EST Latitude Longitude Course Direction KTS MPH feet Rate Location/Type
03:35AM 37.6667 -122.1000 122° Southeast 137 158 1,400  Level Northern Cal TRACON
03:36AM 37.6500 -122.0667 122° Southeast 134 154 3,000 1,320 Climbing Northern Cal TRACON
03:37AM 37.6167 -122.0333 142° Southeast 143 165 4,100 900 Climbing Northern Cal TRACON
03:38AM 37.5833 -122.0000 142° Southeast 155 178 4,900 900 Climbing Northern Cal TRACON
03:39AM 37.5500 -121.9667 142° Southeast 155 178 6,000 840 Climbing Northern Cal TRACON
03:40AM 37.5167 -121.9333 142° Southeast 167 192 6,600 480 Climbing Northern Cal TRACON
03:41AM 37.4833 -121.9000 142° Southeast 181 208 7,000 120 Climbing Northern Cal TRACON
03:42AM 37.4500 -121.8333 122° Southeast 236 272 6,900 120 Descending Northern Cal TRACON
03:43AM 37.4000 -121.8000 152° Southeast 194 223 7,300 480 Climbing Northern Cal TRACON
03:44AM 37.3667 -121.7500 130° Southeast 186 214 7,900 540 Climbing Northern Cal TRACON
03:45AM 37.3397 -121.7203 139° Southeast 181 208 8,300 600 Climbing Oakland Center
03:46AM 37.3083 -121.6744 131° Southeast 179 206 9,000 360 Climbing Oakland Center
03:47AM 37.2683 -121.6242 135° Southeast 192 221 9,100  Climbing Oakland Center
03:48AM 37.2422 -121.5625 118° Southeast 206 237 9,000 -60 Descending Oakland Center
03:49AM 37.2192 -121.4947 113° Southeast 210 242 9,000  Level Oakland Center
03:50AM 37.1869 -121.4386 126° Southeast 202 232 9,000  Level Oakland Center
03:51AM 37.1497 -121.3872 132° Southeast 197 227 9,000  Level Oakland Center
03:52AM 37.1103 -121.3392 136° Southeast 198 228 9,000  Level Oakland Center
03:53AM 37.0706 -121.2869 134° Southeast 199 229 9,000  Level Oakland Center
03:54AM 37.0342 -121.2347 131° Southeast 197 227 9,000  Level Oakland Center
03:55AM 36.9967 -121.1833 132° Southeast 201 231 9,000  Level Oakland Center
03:56AM 36.9611 -121.1333 132° Southeast 198 228 9,000  Level Oakland Center
03:57AM 36.9267 -121.0781 128° Southeast 199 229 9,000  Level Oakland Center
03:58AM 36.8914 -121.0256 130° Southeast 199 229 9,000 -60 Level Oakland Center
03:59AM 36.8533 -120.9706 131° Southeast 202 232 8,900 -60 Descending Oakland Center
04:00AM 36.8117 -120.9197 136° Southeast 207 238 8,900  Level Oakland Center
04:01AM 36.7672 -120.8792 144° Southeast 204 235 8,900  Level Oakland Center
04:02AM 36.7228 -120.8381 143° Southeast 202 232 8,900  Level Oakland Center
04:03AM 36.6772 -120.7961 144° Southeast 203 234 9,000  Climbing Oakland Center
04:04AM 36.6342 -120.7536 142° Southeast 199 229 9,000  Level Oakland Center
04:05AM 36.5906 -120.7106 142° Southeast 199 229 9,000  Level Oakland Center
04:06AM 36.5489 -120.6639 138° Southeast 202 232 9,000  Level Oakland Center
04:07AM 36.5019 -120.6281 148° Southeast 199 229 9,000  Level Oakland Center
04:08AM 36.4544 -120.5933 150° Southeast 197 227 9,000  Level Oakland Center
04:09AM 36.4075 -120.5564 148° Southeast 204 235 9,000  Level Oakland Center
04:10AM 36.3633 -120.5167 144° Southeast 197 227 9,000  Level Oakland Center
04:11AM 36.3144 -120.4825 151° Southeast 201 231 9,000  Level Oakland Center
04:12AM 36.2664 -120.4500 151° Southeast 198 228 9,000 -60 Level Oakland Center
04:13AM 36.2183 -120.4169 151° Southeast 199 229 8,900 -60 Descending Oakland Center
04:14AM 36.1708 -120.3831 150° Southeast 197 227 8,900  Level Oakland Center
04:15AM 36.1244 -120.3461 147° Southeast 197 227 9,000  Climbing Oakland Center
04:16AM 36.0814 -120.3050 142° Southeast 197 227 9,000  Level Oakland Center
04:17AM 36.0361 -120.2672 146° Southeast 196 226 9,000  Level Oakland Center
04:18AM 35.9900 -120.2331 149° Southeast 195 224 9,000  Level Oakland Center
04:19AM 35.9347 -120.1889 147° Southeast 195 224 9,000  Level Oakland Center
04:20AM 35.8856 -120.1561 152° Southeast 198 228 9,000 -60 Level Oakland Center
04:21AM 35.8419 -120.1144 142° Southeast 198 228 8,900  Descending Oakland Center
04:22AM 35.8025 -120.0897 153° Southeast 200 230 9,000  Climbing Oakland Center
04:23AM 35.7544 -120.0572 151° Southeast 197 227 9,000  Level Oakland Center
04:24AM 35.7083 -120.0239 150° Southeast 194 223 9,000 -60 Level Oakland Center
04:25AM 35.6647 -119.9883 146° Southeast 190 219 8,900 -60 Descending Oakland Center
04:26AM 35.6250 -119.9447 138° Southeast 190 219 8,900 240 Level Oakland Center
04:27AM 35.5947 -119.9106 137° Southeast 187 215 9,300 600 Climbing Los Angeles Center
04:28AM 35.5556 -119.8669 138° Southeast 188 216 9,900 600 Climbing Los Angeles Center
04:29AM 35.5228 -119.8186 130° Southeast 185 213 10,500 540 Climbing Los Angeles Center
04:30AM 35.4850 -119.7744 136° Southeast 186 214 11,000 240 Climbing Los Angeles Center
04:31AM 35.4483 -119.7258 133° Southeast 191 220 11,000  Level Los Angeles Center
04:32AM 35.4089 -119.6781 135° Southeast 196 226 11,000  Level Los Angeles Center
04:33AM 35.3706 -119.6303 135° Southeast 196 226 11,000  Level Los Angeles Center
04:34AM 35.3339 -119.5814 133° Southeast 196 226 11,000  Level Los Angeles Center
04:35AM 35.2969 -119.5311 132° Southeast 197 227 11,000  Level Los Angeles Center
04:36AM 35.2642 -119.4778 127° Southeast 197 227 11,000 -60 Level Los Angeles Center
04:37AM 35.2278 -119.4281 132° Southeast 195 224 10,900 -60 Descending Los Angeles Center
04:38AM 35.1867 -119.3822 138° Southeast 198 228 10,900  Level Los Angeles Center
04:39AM 35.1483 -119.3333 134° Southeast 199 229 11,000  Climbing Los Angeles Center
04:40AM 35.1156 -119.2808 127° Southeast 196 226 11,000  Level Los Angeles Center
04:41AM 35.0836 -119.2269 126° Southeast 197 227 11,000 -60 Level Los Angeles Center
04:42AM 35.0531 -119.1731 125° Southeast 194 223 10,900  Descending Los Angeles Center
04:43AM 35.0153 -119.1250 134° Southeast 195 224 11,000  Climbing Los Angeles Center
04:44AM 34.9747 -119.0806 138° Southeast 195 224 10,900 -60 Descending Los Angeles Center
04:45AM 34.9353 -119.0339 136° Southeast 197 227 10,900  Level Los Angeles Center
04:46AM 34.8942 -118.9869 137° Southeast 198 228 10,900  Level Los Angeles Center
04:47AM 34.8592 -118.9506 140° Southeast 195 224 10,900  Level Los Angeles Center
04:48AM 34.8256 -118.8986 128° Southeast 195 224 11,000  Climbing Los Angeles Center
04:49AM 34.7869 -118.8547 137° Southeast 192 221 11,000  Level Los Angeles Center
04:50AM 34.7444 -118.8133 141° Southeast 194 223 11,100 -60 Climbing Los Angeles Center
04:51AM 34.6939 -118.7878 157° South 200 230 10,900 -120 Descending Los Angeles Center
04:52AM 34.6478 -118.7519 147° Southeast 198 228 10,900 -240 Level Los Angeles Center
04:53AM 34.5947 -118.7356 166° South 197 227 10,500 -840 Descending Los Angeles Center
04:54AM 34.5339 -118.7197 168° South 222 255 9,300 -1,020 Descending Los Angeles Center
04:55AM 34.4728 -118.7056 169° South 222 255 8,500 -1,080 Descending Los Angeles Center
04:56AM 34.4169 -118.6844 163° South 214 246 7,200 -1,320 Descending Los Angeles Center
04:57AM 34.3556 -118.6742 172° South 220 253 5,900 -1,080 Descending Los Angeles Center
04:58AM 34.2994 -118.6586 167° South 212 244 5,100 -900 Descending Los Angeles Center
04:59AM 34.2450 -118.6411 165° South 204 235 4,100 -600 Descending Los Angeles Center
05:00AM 34.2125 -118.5919 129° Southeast 208 239 4,000 -420 Descending Los Angeles Center
05:01AM 34.1986 -118.5319 106° East 193 222 3,300 -660 Descending Los Angeles Center
05:02AM 34.1992 -118.4700 89° East 186 214 2,700 -780 Descending Los Angeles Center
05:03AM 34.1992 -118.4225 90° East 165 190 1,800 -840 Descending Los Angeles Center
05:04AM 34.1983 -118.3844 92° East 137 158 1,100 -720 Descending Los Angeles Center
05:06AM 34.2000 -118.3500 90° East  Level FlightAware Approximate